createdAt,value
2018-01-24T00:02:14.592Z,8.97
2018-01-24T00:04:43.049Z,8.61
2018-01-24T00:07:10.930Z,8.73
2018-01-24T00:09:38.474Z,9.08
2018-01-24T00:12:06.345Z,9.09
2018-01-24T00:14:33.850Z,9.02
2018-01-24T00:17:01.356Z,9.13
2018-01-24T00:19:28.922Z,9.12
2018-01-24T00:21:56.422Z,9.29
2018-01-24T00:24:24.192Z,9.17
2018-01-24T00:26:51.684Z,8.94
2018-01-24T00:29:19.176Z,9.14
2018-01-24T00:31:46.701Z,9.02
2018-01-24T00:34:14.195Z,9.38
2018-01-24T00:36:41.934Z,9.20
2018-01-24T00:39:09.455Z,9.06
2018-01-24T00:41:36.981Z,9.23
2018-01-24T00:44:04.518Z,9.07
2018-01-24T00:46:32.020Z,9.20
2018-01-24T00:48:59.693Z,9.04
2018-01-24T00:51:27.195Z,9.28
2018-01-24T00:53:54.690Z,9.18
2018-01-24T00:56:22.347Z,9.39
2018-01-24T00:58:49.861Z,9.25
2018-01-24T01:01:17.728Z,9.14
2018-01-24T01:03:45.229Z,9.34
2018-01-24T01:06:12.730Z,9.00
2018-01-24T01:08:40.256Z,9.12
2018-01-24T01:11:07.760Z,9.14
2018-01-24T01:13:35.539Z,9.17
2018-01-24T01:16:03.096Z,9.06
2018-01-24T01:18:30.596Z,9.19
2018-01-24T01:20:58.145Z,9.28
2018-01-24T01:23:25.641Z,9.20
2018-01-24T01:25:53.181Z,9.14
2018-01-24T01:28:20.689Z,9.05
2018-01-24T01:30:48.184Z,8.93
2018-01-24T01:33:15.720Z,9.05
2018-01-24T01:35:43.247Z,9.00
2018-01-24T01:38:11.013Z,9.00
2018-01-24T01:40:38.514Z,8.92
2018-01-24T01:43:06.027Z,9.20
2018-01-24T01:45:33.700Z,9.36
2018-01-24T01:48:01.212Z,9.34
2018-01-24T01:50:28.732Z,9.17
2018-01-24T01:52:56.232Z,9.38
2018-01-24T01:55:23.738Z,9.46
2018-01-24T01:57:51.264Z,9.37
2018-01-24T02:00:18.758Z,9.48
2018-01-24T02:02:46.316Z,9.41
2018-01-24T02:05:13.820Z,9.47
2018-01-24T02:07:41.317Z,9.56
2018-01-24T02:10:08.841Z,9.22
2018-01-24T02:12:36.342Z,9.45
2018-01-24T02:15:04.193Z,9.42
2018-01-24T02:17:31.714Z,9.27
2018-01-24T02:19:59.220Z,9.50
2018-01-24T02:22:26.740Z,9.50
2018-01-24T02:24:54.245Z,9.64
2018-01-24T02:27:21.776Z,9.62
2018-01-24T02:29:49.280Z,9.55
2018-01-24T02:32:16.776Z,9.69
2018-01-24T02:34:44.300Z,9.86
2018-01-24T02:37:11.806Z,9.86
2018-01-24T02:39:39.552Z,9.77
2018-01-24T02:42:07.054Z,9.94
2018-01-24T02:44:34.596Z,10.09
2018-01-24T02:47:03.078Z,10.32
2018-01-24T02:49:30.580Z,9.51
2018-01-24T02:51:58.110Z,9.91
2018-01-24T02:54:25.647Z,9.90
2018-01-24T02:56:53.144Z,10.01
2018-01-24T02:59:20.714Z,9.95
2018-01-24T03:01:48.302Z,10.21
2018-01-24T03:04:15.960Z,10.20
2018-01-24T03:06:43.456Z,10.23
2018-01-24T03:09:11.006Z,10.05
2018-01-24T03:11:38.565Z,10.20
2018-01-24T03:14:06.126Z,10.18
2018-01-24T03:16:33.695Z,10.44
2018-01-24T03:19:01.242Z,10.31
2018-01-24T03:21:28.740Z,10.42
2018-01-24T03:23:56.269Z,10.44
2018-01-24T03:26:23.920Z,10.56
2018-01-24T03:28:51.772Z,10.51
2018-01-24T03:31:19.268Z,10.55
2018-01-24T03:33:46.772Z,10.68
2018-01-24T03:36:14.304Z,10.43
2018-01-24T03:38:41.809Z,10.45
2018-01-24T03:41:09.445Z,10.47
2018-01-24T03:43:36.947Z,10.44
2018-01-24T03:46:04.498Z,10.66
2018-01-24T03:48:32.024Z,10.01
2018-01-24T03:50:59.538Z,10.08
2018-01-24T03:53:27.089Z,9.98
2018-01-24T03:55:54.629Z,9.78
2018-01-24T03:58:22.197Z,10.05
2018-01-24T04:00:49.751Z,9.88
2018-01-24T04:03:17.245Z,9.60
2018-01-24T04:05:44.968Z,9.65
2018-01-24T04:08:12.464Z,9.86
2018-01-24T04:10:39.963Z,9.78
2018-01-24T04:13:07.485Z,9.55
2018-01-24T04:15:35.102Z,9.61
2018-01-24T04:18:02.664Z,9.89
2018-01-24T04:20:30.221Z,9.79
2018-01-24T04:22:57.720Z,10.02
2018-01-24T04:25:25.243Z,9.87
2018-01-24T04:27:52.813Z,9.78
2018-01-24T04:30:20.368Z,9.70
2018-01-24T04:32:48.048Z,9.97
2018-01-24T04:35:15.542Z,9.75
2018-01-24T04:37:43.080Z,9.74
2018-01-24T04:40:10.591Z,9.70
2018-01-24T04:42:38.151Z,9.76
2018-01-24T04:45:05.734Z,9.84
2018-01-24T04:47:33.271Z,9.82
2018-01-24T04:50:00.850Z,9.73
2018-01-24T04:52:28.351Z,9.79
2018-01-24T04:54:55.872Z,9.87
2018-01-24T04:57:23.380Z,10.11
2018-01-24T04:59:50.877Z,9.75
2018-01-24T05:02:18.401Z,9.52
2018-01-24T05:04:46.112Z,9.83
2018-01-24T05:07:13.664Z,9.65
2018-01-24T05:09:41.199Z,9.49
2018-01-24T05:12:08.692Z,9.53
2018-01-24T05:14:36.237Z,9.46
2018-01-24T05:17:03.733Z,9.50
2018-01-24T05:19:31.268Z,9.66
2018-01-24T05:21:58.790Z,9.78
2018-01-24T05:24:26.292Z,9.77
2018-01-24T05:26:53.827Z,9.87
2018-01-24T05:29:21.333Z,9.47
2018-01-24T05:31:48.853Z,9.63
2018-01-24T05:34:16.381Z,9.78
2018-01-24T05:36:43.876Z,9.65
2018-01-24T05:39:11.410Z,9.50
2018-01-24T05:41:38.910Z,9.66
2018-01-24T05:44:06.799Z,9.54
2018-01-24T05:46:34.296Z,9.63
2018-01-24T05:49:02.760Z,9.46
2018-01-24T05:51:30.281Z,9.63
2018-01-24T05:53:57.781Z,9.60
2018-01-24T05:56:25.811Z,9.51
2018-01-24T05:58:53.316Z,9.61
2018-01-24T06:01:20.863Z,9.74
2018-01-24T06:03:48.407Z,9.47
2018-01-24T06:06:15.900Z,9.38
2018-01-24T06:08:43.420Z,9.53
2018-01-24T06:11:10.916Z,9.58
2018-01-24T06:13:38.429Z,9.43
2018-01-24T06:16:05.951Z,9.37
2018-01-24T06:18:33.456Z,9.42
2018-01-24T06:21:01.132Z,9.53
2018-01-24T06:23:28.690Z,9.39
2018-01-24T06:25:56.190Z,9.30
2018-01-24T06:28:23.811Z,9.40
2018-01-24T06:30:51.367Z,9.49
2018-01-24T06:33:19.131Z,9.40
2018-01-24T06:35:46.628Z,9.33
2018-01-24T06:38:14.148Z,9.35
2018-01-24T06:40:41.706Z,9.32
2018-01-24T06:43:09.210Z,9.32
2018-01-24T06:45:36.750Z,9.25
2018-01-24T06:48:04.281Z,9.50
2018-01-24T06:50:31.777Z,9.22
2018-01-24T06:52:59.305Z,9.40
2018-01-24T06:55:26.804Z,9.61
2018-01-24T06:57:54.519Z,9.52
2018-01-24T07:00:22.536Z,9.15
2018-01-24T07:02:50.044Z,9.36
2018-01-24T07:05:17.568Z,9.38
2018-01-24T07:07:45.077Z,9.40
2018-01-24T07:10:12.605Z,9.13
2018-01-24T07:12:51.828Z,9.15
2018-01-24T07:15:19.414Z,9.11
2018-01-24T07:17:46.916Z,9.15
2018-01-24T07:20:14.428Z,8.93
2018-01-24T07:22:41.987Z,9.10
2018-01-24T07:25:09.553Z,9.26
2018-01-24T07:27:37.105Z,9.20
2018-01-24T07:30:04.596Z,9.07
2018-01-24T07:32:32.098Z,8.92
2018-01-24T07:34:59.618Z,9.11
2018-01-24T07:37:27.116Z,8.95
2018-01-24T07:39:54.728Z,9.08
2018-01-24T07:42:22.255Z,9.25
2018-01-24T07:44:49.753Z,9.21
2018-01-24T07:47:18.296Z,9.34
2018-01-24T07:49:45.802Z,9.29
2018-01-24T07:52:13.618Z,9.69
2018-01-24T07:54:41.109Z,9.63
2018-01-24T07:57:08.615Z,9.30
2018-01-24T07:59:36.437Z,9.71
2018-01-24T08:02:03.957Z,9.66
2018-01-24T08:04:31.603Z,9.66
2018-01-24T08:06:59.102Z,9.73
2018-01-24T08:09:26.634Z,9.89
2018-01-24T08:11:54.194Z,10.05
2018-01-24T08:14:21.697Z,9.86
2018-01-24T08:16:49.414Z,9.78
2018-01-24T08:19:16.917Z,9.90
2018-01-24T08:21:44.430Z,9.96
2018-01-24T08:24:11.954Z,9.78
2018-01-24T08:26:39.452Z,10.17
2018-01-24T08:29:07.007Z,10.04
2018-01-24T08:31:34.507Z,9.93
2018-01-24T08:34:02.021Z,10.16
2018-01-24T08:36:29.580Z,10.09
2018-01-24T08:38:57.076Z,9.99
2018-01-24T08:41:24.628Z,10.24
2018-01-24T08:43:52.157Z,10.01
2018-01-24T08:46:19.665Z,10.30
2018-01-24T08:48:47.196Z,10.35
2018-01-24T08:51:14.705Z,10.41
2018-01-24T08:53:42.506Z,10.29
2018-01-24T08:56:10.055Z,10.20
2018-01-24T08:58:37.615Z,10.37
2018-01-24T09:01:05.171Z,10.35
2018-01-24T09:03:32.678Z,10.57
2018-01-24T09:06:00.221Z,10.51
2018-01-24T09:08:27.765Z,10.51
2018-01-24T09:10:55.305Z,10.73
2018-01-24T09:13:22.865Z,10.67
2018-01-24T09:15:50.372Z,10.67
2018-01-24T09:18:17.924Z,10.69
2018-01-24T09:20:45.428Z,10.82
2018-01-24T09:23:12.928Z,10.64
2018-01-24T09:25:40.455Z,10.83
2018-01-24T09:28:07.957Z,10.79
2018-01-24T09:30:35.565Z,10.92
2018-01-24T09:33:03.087Z,10.75
2018-01-24T09:35:30.630Z,11.30
2018-01-24T09:37:59.149Z,12.56
2018-01-24T09:40:26.668Z,15.21
2018-01-24T09:42:54.495Z,16.82
2018-01-24T09:45:22.055Z,17.91
2018-01-24T09:47:49.616Z,18.43
2018-01-24T09:50:17.136Z,18.66
2018-01-24T09:52:44.653Z,19.09
2018-01-24T09:55:12.188Z,19.84
2018-01-24T09:57:39.693Z,21.06
2018-01-24T10:00:07.203Z,20.69
2018-01-24T10:02:34.764Z,21.24
2018-01-24T10:05:02.263Z,20.09
2018-01-24T10:07:29.885Z,20.97
2018-01-24T10:09:57.383Z,21.38
2018-01-24T10:12:24.894Z,20.68
2018-01-24T10:14:52.838Z,20.43
2018-01-24T10:17:20.341Z,21.68
2018-01-24T10:19:48.044Z,21.06
2018-01-24T10:22:15.545Z,20.85
2018-01-24T10:24:43.060Z,20.33
2018-01-24T10:27:10.588Z,20.38
2018-01-24T10:29:38.223Z,21.29
2018-01-24T10:32:05.964Z,23.22
2018-01-24T10:34:33.465Z,24.46
2018-01-24T10:37:01.003Z,23.83
2018-01-24T10:39:28.563Z,20.44
2018-01-24T10:41:56.077Z,19.07
2018-01-24T10:44:23.780Z,20.20
2018-01-24T10:46:51.285Z,21.51
2018-01-24T10:49:18.788Z,21.60
2018-01-24T10:51:46.358Z,20.50
2018-01-24T10:54:13.913Z,20.75
2018-01-24T10:56:41.678Z,21.52
2018-01-24T10:59:09.243Z,22.53
2018-01-24T11:01:36.740Z,22.75
2018-01-24T11:04:05.175Z,23.42
2018-01-24T11:06:32.740Z,24.79
2018-01-24T11:09:00.499Z,24.51
2018-01-24T11:11:28.005Z,26.00
2018-01-24T11:13:55.530Z,25.87
2018-01-24T11:16:23.057Z,25.48
2018-01-24T11:18:50.569Z,24.52
2018-01-24T11:21:18.124Z,24.60
2018-01-24T11:23:45.648Z,24.07
2018-01-24T11:26:13.149Z,23.61
2018-01-24T11:28:40.680Z,23.43
2018-01-24T11:31:08.224Z,23.46
2018-01-24T11:33:35.988Z,23.51
2018-01-24T11:36:03.492Z,24.06
2018-01-24T11:38:31.001Z,23.34
2018-01-24T11:40:58.605Z,23.64
2018-01-24T11:43:26.121Z,22.33
2018-01-24T11:45:53.669Z,20.93
2018-01-24T11:48:21.176Z,20.87
2018-01-24T11:50:48.696Z,20.36
2018-01-24T11:53:16.222Z,21.19
2018-01-24T11:55:43.729Z,21.62
2018-01-24T11:58:11.476Z,21.40
2018-01-24T12:00:38.982Z,22.57
2018-01-24T12:03:06.481Z,24.91
2018-01-24T12:05:34.033Z,25.18
2018-01-24T12:08:01.611Z,24.51
2018-01-24T12:10:29.373Z,24.68
2018-01-24T12:12:56.897Z,24.15
2018-01-24T12:15:24.400Z,23.75
2018-01-24T12:17:52.358Z,23.89
2018-01-24T12:20:19.921Z,23.95
2018-01-24T12:22:48.104Z,22.90
2018-01-24T12:25:15.671Z,22.84
2018-01-24T12:27:43.289Z,23.87
2018-01-24T12:30:10.768Z,23.27
2018-01-24T12:32:38.311Z,26.16
2018-01-24T12:35:05.842Z,24.75
2018-01-24T12:37:33.345Z,24.60
2018-01-24T12:40:00.902Z,24.65
2018-01-24T12:42:28.460Z,23.54
2018-01-24T12:44:55.965Z,21.52
2018-01-24T12:47:23.664Z,19.84
2018-01-24T12:49:51.162Z,19.08
2018-01-24T12:52:18.698Z,17.73
2018-01-24T12:54:46.246Z,17.45
2018-01-24T12:57:13.752Z,17.20
2018-01-24T12:59:41.579Z,18.10
2018-01-24T13:02:09.081Z,17.59
2018-01-24T13:04:36.585Z,17.32
2018-01-24T13:07:04.170Z,16.45
2018-01-24T13:09:31.722Z,16.65
2018-01-24T13:11:59.269Z,17.11
2018-01-24T13:14:26.775Z,17.28
2018-01-24T13:16:54.290Z,16.64
2018-01-24T13:19:21.846Z,16.52
2018-01-24T13:21:49.407Z,16.93
2018-01-24T13:24:17.170Z,16.96
2018-01-24T13:26:44.670Z,16.50
2018-01-24T13:29:12.699Z,16.70
2018-01-24T13:31:40.257Z,16.59
2018-01-24T13:34:07.756Z,16.40
2018-01-24T13:36:35.388Z,16.20
2018-01-24T13:39:02.935Z,16.14
2018-01-24T13:41:30.493Z,16.67
2018-01-24T13:43:59.008Z,16.82
2018-01-24T13:46:26.533Z,16.98
2018-01-24T13:48:54.194Z,16.65
2018-01-24T13:51:21.697Z,16.98
2018-01-24T13:53:49.221Z,16.98
2018-01-24T13:56:17.094Z,16.35
2018-01-24T13:58:44.601Z,16.56
2018-01-24T14:01:12.152Z,16.52
2018-01-24T14:03:39.685Z,16.55
2018-01-24T14:06:07.210Z,16.61
2018-01-24T14:08:34.770Z,16.54
2018-01-24T14:11:02.279Z,17.03
2018-01-24T14:13:30.095Z,16.52
2018-01-24T14:15:57.655Z,16.50
2018-01-24T14:18:25.211Z,16.50
2018-01-24T14:20:52.744Z,16.55
2018-01-24T14:23:20.250Z,16.74
2018-01-24T14:25:47.816Z,16.51
2018-01-24T14:28:15.347Z,16.57
2018-01-24T14:30:42.857Z,16.53
2018-01-24T14:33:10.389Z,16.86
2018-01-24T14:35:37.919Z,16.91
2018-01-24T14:38:05.472Z,16.73
2018-01-24T14:40:33.040Z,16.39
2018-01-24T14:43:00.598Z,16.22
2018-01-24T14:45:28.145Z,16.07
2018-01-24T14:47:55.653Z,15.84
2018-01-24T14:50:23.355Z,15.77
2018-01-24T14:52:50.857Z,16.11
2018-01-24T14:55:18.392Z,15.49
2018-01-24T14:57:45.952Z,15.80
2018-01-24T15:00:13.512Z,15.58
2018-01-24T15:02:41.050Z,15.50
2018-01-24T15:05:08.552Z,15.75
2018-01-24T15:07:36.157Z,15.48
2018-01-24T15:10:03.679Z,15.65
2018-01-24T15:12:31.185Z,15.61
2018-01-24T15:14:59.071Z,15.43
2018-01-24T15:17:26.690Z,15.27
2018-01-24T15:19:54.171Z,15.04
2018-01-24T15:22:22.158Z,15.41
2018-01-24T15:24:49.725Z,14.89
2018-01-24T15:27:17.686Z,15.39
2018-01-24T15:29:45.192Z,15.35
2018-01-24T15:32:12.724Z,15.08
2018-01-24T15:34:40.260Z,15.37
2018-01-24T15:37:07.767Z,15.28
2018-01-24T15:39:35.482Z,15.21
2018-01-24T15:42:03.040Z,15.05
2018-01-24T15:44:30.545Z,14.90
2018-01-24T15:46:58.072Z,14.27
2018-01-24T15:49:25.614Z,14.54
2018-01-24T15:51:53.626Z,14.63
2018-01-24T15:54:21.172Z,14.57
2018-01-24T15:56:48.702Z,14.50
2018-01-24T15:59:16.227Z,14.37
2018-01-24T16:01:43.740Z,14.58
2018-01-24T16:04:11.300Z,14.81
2018-01-24T16:06:38.837Z,14.30
2018-01-24T16:09:06.377Z,14.44
2018-01-24T16:11:33.904Z,14.44
2018-01-24T16:14:01.680Z,14.36
2018-01-24T16:16:29.584Z,14.38
2018-01-24T16:18:57.101Z,14.30
2018-01-24T16:21:25.036Z,14.22
2018-01-24T16:23:52.570Z,14.21
2018-01-24T16:26:20.231Z,13.91
2018-01-24T16:28:48.096Z,14.37
2018-01-24T16:31:15.957Z,14.33
2018-01-24T16:33:48.592Z,14.25
2018-01-24T16:36:16.201Z,14.08
2018-01-24T16:38:43.741Z,14.01
2018-01-24T16:41:11.532Z,13.65
2018-01-24T16:43:40.025Z,13.83
2018-01-24T16:46:07.565Z,13.79
2018-01-24T16:48:35.894Z,13.79
2018-01-24T16:51:04.593Z,13.64
2018-01-24T16:53:32.597Z,13.54
2018-01-24T16:56:01.087Z,13.57
2018-01-24T16:58:28.931Z,13.54
2018-01-24T17:00:56.502Z,13.47
2018-01-24T17:03:24.062Z,13.39
2018-01-24T17:05:51.989Z,13.38
2018-01-24T17:08:19.897Z,13.35
2018-01-24T17:10:47.795Z,13.50
2018-01-24T17:13:15.827Z,13.51
2018-01-24T17:15:43.705Z,13.70
2018-01-24T17:18:11.509Z,13.72
2018-01-24T17:20:39.332Z,13.72
2018-01-24T17:23:07.116Z,14.04
2018-01-24T17:25:34.909Z,13.49
2018-01-24T17:28:02.624Z,13.36
2018-01-24T17:30:30.256Z,13.58
2018-01-24T17:32:58.151Z,13.32
2018-01-24T17:35:25.978Z,13.43
2018-01-24T17:37:53.883Z,13.87
2018-01-24T17:40:21.653Z,13.51
2018-01-24T17:42:49.401Z,13.48
2018-01-24T17:45:17.672Z,13.48
2018-01-24T17:47:45.334Z,13.35
2018-01-24T17:50:14.006Z,13.63
2018-01-24T17:52:41.797Z,13.59
2018-01-24T17:55:09.665Z,13.78
2018-01-24T17:57:38.454Z,13.40
2018-01-24T18:00:06.533Z,13.20
2018-01-24T18:02:40.212Z,13.25
2018-01-24T18:05:08.102Z,13.77
2018-01-24T18:07:38.486Z,13.67
2018-01-24T18:10:06.337Z,13.51
2018-01-24T18:12:34.051Z,13.56
2018-01-24T18:15:03.572Z,13.23
2018-01-24T18:17:31.622Z,13.11
2018-01-24T18:19:59.393Z,13.24
2018-01-24T18:22:27.166Z,13.23
2018-01-24T18:24:55.120Z,13.40
2018-01-24T18:27:23.434Z,13.23
2018-01-24T18:29:51.669Z,13.11
2018-01-24T18:32:19.643Z,13.57
2018-01-24T18:34:47.835Z,13.24
2018-01-24T18:37:16.826Z,13.19
2018-01-24T18:39:44.689Z,12.97
2018-01-24T18:42:13.175Z,12.79
2018-01-24T18:44:41.144Z,13.12
2018-01-24T18:47:08.909Z,12.81
2018-01-24T18:49:37.163Z,12.87
2018-01-24T18:52:05.149Z,12.81
2018-01-24T18:54:33.308Z,13.10
2018-01-24T18:57:01.185Z,13.13
2018-01-24T18:59:30.269Z,13.32
2018-01-24T19:01:58.154Z,13.55
2018-01-24T19:04:26.323Z,13.23
2018-01-24T19:06:54.787Z,13.22
2018-01-24T19:09:22.552Z,13.20
2018-01-24T19:11:50.417Z,13.16
2018-01-24T19:14:18.303Z,13.12
2018-01-24T19:16:46.251Z,13.36
2018-01-24T19:19:14.119Z,13.39
2018-01-24T19:21:41.894Z,12.82
2018-01-24T19:24:10.823Z,12.91
2018-01-24T19:26:38.742Z,13.02
2018-01-24T19:29:06.529Z,13.06
2018-01-24T19:31:35.610Z,12.70
2018-01-24T19:34:04.312Z,13.07
2018-01-24T19:36:32.254Z,12.68
2018-01-24T19:39:00.139Z,12.73
2018-01-24T19:41:27.907Z,12.69
2018-01-24T19:43:55.956Z,12.63
2018-01-24T19:46:23.914Z,12.31
2018-01-24T19:48:51.792Z,12.59
2018-01-24T19:51:19.863Z,12.47
2018-01-24T19:53:48.129Z,12.23
2018-01-24T19:56:16.487Z,12.43
2018-01-24T19:58:44.294Z,12.10
2018-01-24T20:01:12.254Z,12.22
2018-01-24T20:03:40.026Z,12.08
2018-01-24T20:06:07.895Z,12.12
2018-01-24T20:08:36.259Z,12.40
2018-01-24T20:11:04.572Z,12.21
2018-01-24T20:13:32.422Z,12.36
2018-01-24T20:16:00.386Z,12.21
2018-01-24T20:18:28.338Z,12.01
2018-01-24T20:20:56.819Z,12.37
2018-01-24T20:23:24.669Z,12.15
2018-01-24T20:25:52.945Z,12.16
2018-01-24T20:28:21.234Z,12.21
2018-01-24T20:30:49.069Z,12.40
2018-01-24T20:33:17.087Z,12.38
2018-01-24T20:35:45.328Z,12.33
2018-01-24T20:38:13.123Z,12.25
2018-01-24T20:40:40.994Z,12.18
2018-01-24T20:43:08.747Z,11.96
2018-01-24T20:45:36.623Z,12.28
2018-01-24T20:48:04.579Z,12.27
2018-01-24T20:50:32.352Z,12.37
2018-01-24T20:53:00.214Z,12.20
2018-01-24T20:55:28.179Z,12.14
2018-01-24T20:57:56.212Z,12.26
2018-01-24T21:00:24.627Z,12.37
2018-01-24T21:02:52.408Z,12.19
2018-01-24T21:05:20.382Z,12.09
2018-01-24T21:07:48.124Z,12.10
2018-01-24T21:10:16.310Z,12.21
2018-01-24T21:12:44.997Z,12.17
2018-01-24T21:15:12.858Z,12.03
2018-01-24T21:17:40.729Z,12.03
2018-01-24T21:20:08.478Z,12.23
2018-01-24T21:22:36.448Z,12.09
2018-01-24T21:25:04.364Z,12.28
2018-01-24T21:27:32.180Z,12.28
2018-01-24T21:30:11.737Z,12.32
2018-01-24T21:32:51.372Z,12.42
2018-01-24T21:35:31.005Z,12.34
2018-01-24T21:37:59.900Z,12.11
2018-01-24T21:40:28.429Z,12.11
2018-01-24T21:42:57.748Z,11.74
2018-01-24T21:45:25.646Z,12.14
2018-01-24T21:47:53.204Z,11.91
2018-01-24T21:50:20.763Z,11.88
2018-01-24T21:52:48.732Z,12.14
2018-01-24T21:55:16.292Z,11.94
2018-01-24T21:57:43.911Z,11.86
2018-01-24T22:00:11.481Z,12.03
2018-01-24T22:02:39.010Z,11.92
2018-01-24T22:05:06.709Z,11.98
2018-01-24T22:07:34.209Z,12.04
2018-01-24T22:10:01.751Z,11.84
2018-01-24T22:12:29.308Z,11.93
2018-01-24T22:14:56.808Z,11.88
2018-01-24T22:17:24.501Z,11.88
2018-01-24T22:19:52.012Z,11.82
2018-01-24T22:22:19.524Z,11.86
2018-01-24T22:24:47.055Z,12.01
2018-01-24T22:27:14.565Z,11.89
2018-01-24T22:29:42.266Z,11.80
2018-01-24T22:32:09.862Z,12.02
2018-01-24T22:34:37.372Z,11.77
2018-01-24T22:37:04.897Z,11.66
2018-01-24T22:39:32.413Z,11.94
2018-01-24T22:42:00.101Z,11.90
2018-01-24T22:44:27.609Z,11.86
2018-01-24T22:46:55.139Z,11.88
2018-01-24T22:49:22.672Z,11.83
2018-01-24T22:51:50.181Z,11.75
2018-01-24T22:54:17.714Z,11.76
2018-01-24T22:56:45.213Z,11.98
2018-01-24T22:59:12.931Z,11.94
2018-01-24T23:01:40.438Z,11.96
2018-01-24T23:04:07.949Z,11.97
2018-01-24T23:06:35.480Z,11.77
2018-01-24T23:09:03.056Z,12.00
2018-01-24T23:11:30.625Z,11.84
2018-01-24T23:13:58.124Z,11.91
2018-01-24T23:16:25.640Z,11.86
2018-01-24T23:18:53.199Z,11.70
2018-01-24T23:21:20.704Z,11.98
2018-01-24T23:23:48.587Z,11.70
2018-01-24T23:26:16.072Z,11.73
2018-01-24T23:28:43.589Z,11.97
2018-01-24T23:31:11.122Z,11.98
2018-01-24T23:33:38.635Z,11.87
2018-01-24T23:36:06.524Z,11.63
2018-01-24T23:38:34.068Z,11.76
2018-01-24T23:41:01.792Z,11.78
2018-01-24T23:43:29.337Z,11.60
2018-01-24T23:45:56.863Z,11.56
2018-01-24T23:48:24.433Z,11.62
2018-01-24T23:50:51.933Z,11.61
2018-01-24T23:53:19.523Z,11.73
2018-01-24T23:55:47.100Z,11.69
2018-01-24T23:58:14.604Z,11.67
